Time;durP1;ratioP1;P1;durP2;ratioP2;P2;SDS_P1;SDS_P2;PMS_P1;PMS_P2;Temp;Humidity;BMP_temperature;BMP_pressure;BME280_temperature;BME280_humidity;BME280_pressure;Samples;Min_cycle;Max_cycle;Signal;HPM_P1;HPM_P2
2024/01/25 00:01:29;;;;;;;43.67;12.23;;;2.00;99.90;;;;;;5086389;28;20051;-72
2024/01/25 00:03:57;;;;;;;39.70;12.57;;;2.00;99.90;;;;;;5090344;28;20067;-67
2024/01/25 00:06:25;;;;;;;46.20;12.90;;;2.00;99.90;;;;;;5085191;28;20741;-68
2024/01/25 00:08:53;;;;;;;45.63;13.13;;;2.00;99.90;;;;;;5084806;28;20040;-66
2024/01/25 00:11:21;;;;;;;51.70;13.85;;;2.00;99.90;;;;;;5067594;28;20048;-69
2024/01/25 00:13:48;;;;;;;38.38;12.88;;;2.00;99.90;;;;;;5077060;28;20044;-63
2024/01/25 00:16:17;;;;;;;43.38;11.77;;;2.00;99.90;;;;;;5085669;28;20048;-63
2024/01/25 00:18:46;;;;;;;37.40;12.05;;;1.90;99.90;;;;;;5085273;28;20407;-63
2024/01/25 00:21:13;;;;;;;43.63;11.57;;;1.90;99.90;;;;;;5086497;28;20051;-62
2024/01/25 00:23:41;;;;;;;40.53;12.23;;;1.90;99.90;;;;;;5088279;28;20055;-61
2024/01/25 00:26:08;;;;;;;33.35;12.57;;;1.90;99.90;;;;;;5086703;28;20040;-62
2024/01/25 00:28:36;;;;;;;42.50;12.32;;;1.90;99.90;;;;;;5088695;28;20047;-61
2024/01/25 00:31:04;;;;;;;39.55;11.88;;;1.90;99.90;;;;;;5092674;28;20047;-62
2024/01/25 00:33:32;;;;;;;35.35;10.80;;;1.90;99.90;;;;;;5106187;28;20070;-62
2024/01/25 00:36:00;;;;;;;46.25;14.15;;;1.80;99.90;;;;;;5089092;28;20047;-61
2024/01/25 00:38:32;;;;;;;42.42;11.38;;;1.80;99.90;;;;;;5088411;28;20048;-61
2024/01/25 00:41:00;;;;;;;45.20;10.48;;;1.80;99.90;;;;;;5058435;28;20041;-61
2024/01/25 00:43:28;;;;;;;51.33;11.63;;;1.80;99.90;;;;;;5084377;28;20051;-62
2024/01/25 00:45:56;;;;;;;30.23;10.18;;;1.70;99.90;;;;;;5108650;28;20040;-62
2024/01/25 00:48:24;;;;;;;45.63;11.88;;;1.80;99.90;;;;;;5100410;28;20055;-62
2024/01/25 00:50:52;;;;;;;42.28;13.05;;;1.80;99.90;;;;;;5087735;28;20051;-62
2024/01/25 00:53:20;;;;;;;36.63;11.50;;;1.90;99.90;;;;;;5080346;28;20051;-61
2024/01/25 00:55:48;;;;;;;49.45;12.73;;;1.90;99.90;;;;;;5078505;28;20056;-62
2024/01/25 00:58:17;;;;;;;39.33;10.40;;;1.90;99.90;;;;;;5074901;28;20040;-61
2024/01/25 01:00:45;;;;;;;36.42;11.60;;;1.90;99.90;;;;;;5088117;28;20380;-65
2024/01/25 01:03:14;;;;;;;35.03;11.93;;;1.90;99.90;;;;;;5099951;28;20047;-62
2024/01/25 01:05:44;;;;;;;35.38;10.23;;;2.00;99.90;;;;;;5085125;28;20075;-62
2024/01/25 01:08:12;;;;;;;37.17;10.45;;;1.90;99.90;;;;;;5087277;28;20040;-61
2024/01/25 01:10:40;;;;;;;40.38;11.10;;;1.90;99.90;;;;;;5080544;28;20040;-62
2024/01/25 01:13:07;;;;;;;32.88;9.57;;;2.00;99.90;;;;;;5086021;28;20055;-63
2024/01/25 01:15:35;;;;;;;40.78;9.68;;;1.90;99.90;;;;;;5087832;28;20365;-67
2024/01/25 01:18:07;;;;;;;38.85;9.77;;;2.00;99.90;;;;;;5088043;28;20495;-65
2024/01/25 01:20:35;;;;;;;33.83;10.05;;;2.00;99.90;;;;;;5088169;28;20047;-66
2024/01/25 01:23:03;;;;;;;41.35;9.80;;;2.00;99.90;;;;;;5090517;28;20054;-67
2024/01/25 01:25:31;;;;;;;39.20;11.10;;;2.10;99.90;;;;;;5083799;28;20532;-64
2024/01/25 01:27:59;;;;;;;29.80;8.55;;;2.00;99.90;;;;;;5072410;28;20048;-65
2024/01/25 01:30:27;;;;;;;34.75;8.85;;;2.10;99.90;;;;;;5088108;28;20051;-63
2024/01/25 01:32:54;;;;;;;47.28;11.20;;;2.10;99.90;;;;;;5108428;28;20403;-64
2024/01/25 01:35:22;;;;;;;31.02;9.55;;;2.10;99.90;;;;;;5108267;28;20043;-66
2024/01/25 01:37:50;;;;;;;41.65;10.02;;;2.10;99.90;;;;;;5104259;28;20040;-65
2024/01/25 01:40:18;;;;;;;36.88;10.07;;;2.10;99.90;;;;;;5072186;28;20051;-70
2024/01/25 01:42:46;;;;;;;34.85;9.77;;;2.10;99.90;;;;;;5069666;28;20492;-70
2024/01/25 01:45:13;;;;;;;29.02;8.05;;;2.10;99.90;;;;;;5103684;28;20376;-69
2024/01/25 01:47:41;;;;;;;31.55;9.57;;;2.10;99.90;;;;;;5106857;28;20048;-65
2024/01/25 01:50:09;;;;;;;51.65;10.55;;;2.10;99.90;;;;;;5089064;28;20059;-70
2024/01/25 01:52:38;;;;;;;36.03;9.70;;;2.10;99.90;;;;;;5087857;28;20058;-69
2024/01/25 01:55:06;;;;;;;42.65;9.48;;;2.10;99.90;;;;;;5088281;28;20048;-65
2024/01/25 01:57:36;;;;;;;35.75;9.63;;;2.10;99.90;;;;;;5072463;28;20146;-66
2024/01/25 02:00:08;;;;;;;34.58;8.50;;;2.20;99.90;;;;;;5090814;28;20048;-68
2024/01/25 02:02:39;;;;;;;30.88;8.50;;;2.20;99.90;;;;;;5110424;28;20039;-62
2024/01/25 02:05:06;;;;;;;35.20;9.02;;;2.20;99.90;;;;;;5095716;28;20054;-63
2024/01/25 02:07:34;;;;;;;37.95;8.93;;;2.30;99.90;;;;;;5091579;28;20399;-63
2024/01/25 02:10:03;;;;;;;30.38;9.10;;;2.30;99.90;;;;;;5091085;28;20044;-62
2024/01/25 02:12:31;;;;;;;29.80;8.30;;;2.30;99.90;;;;;;5072709;28;20484;-62
2024/01/25 02:14:59;;;;;;;34.55;9.82;;;2.30;99.90;;;;;;5073162;28;20288;-63
2024/01/25 02:17:27;;;;;;;36.75;10.00;;;2.30;99.90;;;;;;5091513;28;20044;-63
2024/01/25 02:19:55;;;;;;;36.50;8.02;;;2.30;99.90;;;;;;5090186;28;20063;-71
2024/01/25 02:22:23;;;;;;;35.45;9.55;;;2.30;99.90;;;;;;5089570;28;20063;-71
2024/01/25 02:24:50;;;;;;;52.47;10.52;;;2.40;99.90;;;;;;5089277;28;20040;-67
2024/01/25 02:27:18;;;;;;;34.50;9.45;;;2.40;99.90;;;;;;5081723;28;20040;-61
2024/01/25 02:29:46;;;;;;;36.17;10.00;;;2.40;99.90;;;;;;5090728;28;20047;-62
2024/01/25 02:32:13;;;;;;;31.00;7.47;;;2.40;99.90;;;;;;5086549;28;20052;-62
2024/01/25 02:34:41;;;;;;;27.30;7.35;;;2.40;99.90;;;;;;5094170;28;20058;-62
2024/01/25 02:37:11;;;;;;;36.90;8.88;;;2.50;99.90;;;;;;5094286;28;20044;-62
2024/01/25 02:39:38;;;;;;;47.33;8.13;;;2.50;99.90;;;;;;5097730;28;20048;-63
2024/01/25 02:42:06;;;;;;;34.58;8.23;;;2.60;99.90;;;;;;5073609;28;20051;-62
2024/01/25 02:44:34;;;;;;;31.98;8.48;;;2.60;99.90;;;;;;5074023;28;20048;-62
2024/01/25 02:47:01;;;;;;;34.17;7.15;;;2.60;99.90;;;;;;5072710;28;20475;-62
2024/01/25 02:49:29;;;;;;;46.65;9.18;;;2.60;99.90;;;;;;5086129;28;20514;-62
2024/01/25 02:51:57;;;;;;;44.47;8.73;;;2.60;99.90;;;;;;5094153;28;20048;-62
2024/01/25 02:54:25;;;;;;;34.72;7.80;;;2.60;99.90;;;;;;5092392;28;20512;-63
2024/01/25 02:56:52;;;;;;;31.92;6.90;;;2.60;99.90;;;;;;5073897;28;20391;-62
2024/01/25 02:59:20;;;;;;;35.88;7.97;;;2.60;99.90;;;;;;5078368;28;20416;-61
2024/01/25 03:01:49;;;;;;;25.45;7.15;;;2.60;99.90;;;;;;5085021;28;20048;-63
2024/01/25 03:04:17;;;;;;;32.75;6.93;;;2.70;99.90;;;;;;5092600;28;20066;-62
2024/01/25 03:06:45;;;;;;;37.50;8.93;;;2.70;99.90;;;;;;5092911;28;20048;-64
2024/01/25 03:09:13;;;;;;;37.92;7.35;;;2.70;99.90;;;;;;5090240;28;20044;-62
2024/01/25 03:11:41;;;;;;;28.05;6.47;;;2.70;99.90;;;;;;5089241;28;20055;-61
2024/01/25 03:14:08;;;;;;;35.05;7.50;;;2.70;99.90;;;;;;5073422;28;20412;-65
2024/01/25 03:16:36;;;;;;;28.88;6.85;;;2.70;99.90;;;;;;5079706;28;20044;-66
2024/01/25 03:19:03;;;;;;;39.25;8.27;;;2.80;99.90;;;;;;5093317;28;20047;-64
2024/01/25 03:21:31;;;;;;;31.13;7.65;;;2.70;99.90;;;;;;5093371;28;20059;-65
2024/01/25 03:23:59;;;;;;;29.85;7.68;;;2.80;99.90;;;;;;5091321;28;20040;-65
2024/01/25 03:26:28;;;;;;;36.63;8.23;;;2.80;99.90;;;;;;5074264;28;20045;-62
2024/01/25 03:28:55;;;;;;;32.85;6.85;;;2.80;99.90;;;;;;5078363;28;20044;-63
2024/01/25 03:31:23;;;;;;;39.38;6.35;;;2.80;99.90;;;;;;5091800;28;20048;-62
2024/01/25 03:33:51;;;;;;;28.23;5.85;;;2.80;99.90;;;;;;5093194;28;20036;-62
2024/01/25 03:36:18;;;;;;;37.42;5.90;;;2.80;99.90;;;;;;5093175;28;20043;-62
2024/01/25 03:38:46;;;;;;;28.33;6.88;;;2.80;99.90;;;;;;5079994;28;20048;-62
2024/01/25 03:41:14;;;;;;;34.15;6.07;;;2.80;99.90;;;;;;5072966;28;20053;-62
2024/01/25 03:43:41;;;;;;;30.58;6.93;;;2.90;99.90;;;;;;5072898;28;20385;-62
2024/01/25 03:46:14;;;;;;;34.83;7.47;;;3.00;99.90;;;;;;5072684;28;20051;-63
2024/01/25 03:48:42;;;;;;;29.77;6.30;;;3.00;99.90;;;;;;5078415;28;20491;-62
2024/01/25 03:51:10;;;;;;;31.10;5.45;;;3.10;99.90;;;;;;5092863;28;20479;-63
2024/01/25 03:53:37;;;;;;;47.35;7.50;;;3.30;99.90;;;;;;5093385;28;20064;-62
2024/01/25 03:56:13;;;;;;;33.05;5.85;;;3.40;99.90;;;;;;5072916;28;20045;-61
2024/01/25 03:58:41;;;;;;;30.35;4.57;;;3.60;99.90;;;;;;5074559;28;20045;-61
2024/01/25 04:01:09;;;;;;;47.83;5.50;;;3.70;99.90;;;;;;5091617;28;20051;-63
2024/01/25 04:03:37;;;;;;;49.05;6.25;;;3.80;99.90;;;;;;5092360;28;20059;-62
2024/01/25 04:06:05;;;;;;;30.42;4.35;;;4.00;99.90;;;;;;5074306;28;20052;-62
2024/01/25 04:08:33;;;;;;;34.63;6.03;;;4.00;99.90;;;;;;5092536;28;20044;-65
2024/01/25 04:11:00;;;;;;;38.67;6.78;;;4.10;99.90;;;;;;5092433;28;20058;-62
2024/01/25 04:13:28;;;;;;;32.63;6.18;;;4.20;99.90;;;;;;5092396;28;20044;-62
2024/01/25 04:15:55;;;;;;;35.95;5.63;;;4.30;99.90;;;;;;5072325;28;20052;-64
2024/01/25 04:18:23;;;;;;;35.78;5.03;;;4.40;99.90;;;;;;5080525;28;20051;-62
2024/01/25 04:20:51;;;;;;;43.70;5.63;;;4.40;99.90;;;;;;5092173;28;20059;-62
2024/01/25 04:23:19;;;;;;;33.50;6.38;;;4.50;99.90;;;;;;5091396;28;20040;-62
2024/01/25 04:25:46;;;;;;;45.70;5.18;;;4.60;99.90;;;;;;5090932;28;20056;-62
2024/01/25 04:28:14;;;;;;;31.13;5.10;;;4.60;99.90;;;;;;5092201;28;20055;-61
2024/01/25 04:30:42;;;;;;;35.30;4.07;;;4.60;99.90;;;;;;5091695;28;20040;-62
2024/01/25 04:33:10;;;;;;;37.50;4.95;;;4.70;99.90;;;;;;5090507;28;20055;-63
2024/01/25 04:35:37;;;;;;;33.88;4.75;;;4.70;99.90;;;;;;5092290;28;20040;-63
2024/01/25 04:38:05;;;;;;;34.78;4.53;;;4.80;99.90;;;;;;5092147;28;20052;-63
2024/01/25 04:40:33;;;;;;;43.45;6.88;;;4.90;99.90;;;;;;5089769;28;20531;-61
2024/01/25 04:43:00;;;;;;;55.10;6.68;;;4.90;99.90;;;;;;5090884;28;20051;-62
2024/01/25 04:45:28;;;;;;;31.55;5.70;;;4.90;99.90;;;;;;5090660;28;20048;-62
2024/01/25 04:47:56;;;;;;;35.05;5.22;;;5.00;99.90;;;;;;5081173;28;20033;-66
2024/01/25 04:50:24;;;;;;;42.70;7.20;;;5.00;99.90;;;;;;5088284;28;20558;-62
2024/01/25 04:52:51;;;;;;;44.55;6.47;;;5.10;99.90;;;;;;5091244;28;20040;-62
2024/01/25 04:55:20;;;;;;;46.92;5.88;;;5.10;99.90;;;;;;5090440;28;20625;-62
2024/01/25 04:57:49;;;;;;;49.00;7.63;;;5.10;99.90;;;;;;5091719;28;20039;-62
2024/01/25 05:00:17;;;;;;;38.05;6.28;;;5.20;99.90;;;;;;5091575;28;20052;-61
2024/01/25 05:02:45;;;;;;;46.08;6.70;;;5.20;99.90;;;;;;5087679;28;20036;-61
2024/01/25 05:05:12;;;;;;;36.05;6.45;;;5.30;99.90;;;;;;5091421;28;20048;-63
2024/01/25 05:07:41;;;;;;;39.75;5.60;;;5.30;99.90;;;;;;5091251;28;20480;-62
2024/01/25 05:10:09;;;;;;;41.92;6.13;;;5.30;99.90;;;;;;5088612;28;20138;-63
2024/01/25 05:12:37;;;;;;;38.00;5.55;;;5.40;99.90;;;;;;5086601;28;20059;-62
2024/01/25 05:15:06;;;;;;;35.35;5.93;;;5.40;99.90;;;;;;5090121;28;20036;-62
2024/01/25 05:17:34;;;;;;;47.53;6.93;;;5.40;99.90;;;;;;5091033;28;20044;-64
2024/01/25 05:20:02;;;;;;;38.83;5.88;;;5.40;99.90;;;;;;5091261;28;20047;-64
2024/01/25 05:22:31;;;;;;;42.50;5.80;;;5.40;99.90;;;;;;5091508;28;20081;-62
2024/01/25 05:24:59;;;;;;;35.45;6.72;;;5.40;99.90;;;;;;5087383;28;20043;-63
2024/01/25 05:27:26;;;;;;;41.03;6.15;;;5.40;99.90;;;;;;5091181;28;20048;-63
2024/01/25 05:29:54;;;;;;;47.92;7.45;;;5.40;99.90;;;;;;5091634;28;20556;-63
2024/01/25 05:32:22;;;;;;;43.65;7.57;;;5.40;99.90;;;;;;5095366;28;20055;-62
2024/01/25 05:34:50;;;;;;;40.38;6.30;;;5.50;99.90;;;;;;5095606;28;20067;-63
2024/01/25 05:37:18;;;;;;;47.60;7.82;;;5.50;99.90;;;;;;5095463;28;20055;-63
2024/01/25 05:39:46;;;;;;;46.38;7.60;;;5.50;99.90;;;;;;5095223;28;20048;-63
2024/01/25 05:42:13;;;;;;;50.03;6.47;;;5.50;99.90;;;;;;5084335;28;20598;-65
2024/01/25 05:44:41;;;;;;;49.25;7.40;;;5.50;99.90;;;;;;5075400;28;20396;-62
2024/01/25 05:47:08;;;;;;;41.42;7.38;;;5.50;99.90;;;;;;5088746;28;20048;-65
2024/01/25 05:49:36;;;;;;;54.55;8.30;;;5.50;99.90;;;;;;5081683;28;20051;-64
2024/01/25 05:52:04;;;;;;;66.28;8.50;;;5.60;99.90;;;;;;5091556;28;20040;-63
2024/01/25 05:54:32;;;;;;;55.42;10.35;;;5.60;99.90;;;;;;5091402;28;20040;-65
2024/01/25 05:57:00;;;;;;;48.20;8.23;;;5.60;99.90;;;;;;5080353;28;20057;-63
2024/01/25 05:59:28;;;;;;;54.85;8.75;;;5.70;99.90;;;;;;5099329;28;20063;-62
2024/01/25 06:01:56;;;;;;;53.50;8.52;;;5.70;99.90;;;;;;5085150;28;20478;-64
2024/01/25 06:04:23;;;;;;;62.85;9.70;;;5.80;99.90;;;;;;5086672;28;20324;-64
2024/01/25 06:06:51;;;;;;;45.35;7.28;;;5.80;99.90;;;;;;5088555;28;20577;-62
2024/01/25 06:09:19;;;;;;;46.03;7.63;;;5.80;99.90;;;;;;5101188;28;20388;-62
2024/01/25 06:11:47;;;;;;;50.30;8.15;;;5.90;99.90;;;;;;5084046;28;20048;-68
2024/01/25 06:14:15;;;;;;;54.60;8.85;;;5.90;99.90;;;;;;5103318;28;20044;-62
2024/01/25 06:16:42;;;;;;;60.42;7.88;;;6.00;99.90;;;;;;5091687;28;20051;-62
2024/01/25 06:19:11;;;;;;;48.97;7.65;;;6.00;99.90;;;;;;5101059;28;20048;-62
2024/01/25 06:21:38;;;;;;;44.00;7.22;;;6.10;99.90;;;;;;5091128;28;20813;-63
2024/01/25 06:24:06;;;;;;;40.17;7.60;;;6.10;99.90;;;;;;5076088;28;20419;-64
2024/01/25 06:26:34;;;;;;;45.10;7.65;;;6.10;99.90;;;;;;5083673;28;20435;-64
2024/01/25 06:29:04;;;;;;;56.58;7.80;;;6.10;99.90;;;;;;5092855;28;20048;-66
2024/01/25 06:31:32;;;;;;;40.30;7.07;;;6.10;99.90;;;;;;5091155;28;20048;-66
2024/01/25 06:34:00;;;;;;;41.00;6.47;;;6.10;99.90;;;;;;5110395;28;20051;-63
2024/01/25 06:36:28;;;;;;;38.38;6.55;;;6.10;99.90;;;;;;5111346;28;20036;-61
2024/01/25 06:38:56;;;;;;;30.48;6.65;;;6.10;99.90;;;;;;5094997;28;20040;-62
2024/01/25 06:41:23;;;;;;;33.70;7.07;;;6.20;99.90;;;;;;5076508;28;20058;-62
2024/01/25 06:43:51;;;;;;;35.67;6.75;;;6.20;99.90;;;;;;5096273;28;20040;-63
2024/01/25 06:46:18;;;;;;;38.60;7.93;;;6.20;99.90;;;;;;5090158;28;20399;-62
2024/01/25 06:48:46;;;;;;;25.27;6.22;;;6.30;99.90;;;;;;5078821;28;20041;-62
2024/01/25 06:51:14;;;;;;;37.58;6.43;;;6.30;99.90;;;;;;5089663;28;20055;-66
2024/01/25 06:53:42;;;;;;;34.10;6.88;;;6.30;99.90;;;;;;5094737;28;20040;-63
2024/01/25 06:56:10;;;;;;;31.38;6.75;;;6.30;99.90;;;;;;5085688;28;20044;-66
2024/01/25 06:58:37;;;;;;;35.20;6.13;;;6.40;99.90;;;;;;5099736;28;20506;-65
2024/01/25 07:01:05;;;;;;;35.83;7.15;;;6.40;99.90;;;;;;5090096;28;20052;-63
2024/01/25 07:03:33;;;;;;;34.30;6.40;;;6.40;99.90;;;;;;5086638;28;20040;-65
2024/01/25 07:06:02;;;;;;;35.78;5.93;;;6.50;99.90;;;;;;5090372;28;20052;-64
2024/01/25 07:08:29;;;;;;;42.70;6.03;;;6.50;99.90;;;;;;5089445;28;20045;-62
2024/01/25 07:10:59;;;;;;;30.80;6.57;;;6.50;99.90;;;;;;5089149;28;20407;-63
2024/01/25 07:13:27;;;;;;;31.63;6.93;;;6.60;99.90;;;;;;5084205;28;20051;-62
2024/01/25 07:15:54;;;;;;;31.17;5.68;;;6.70;99.90;;;;;;5088801;28;20044;-63
2024/01/25 07:18:24;;;;;;;36.25;7.07;;;6.70;99.90;;;;;;5089233;28;20047;-65
2024/01/25 07:20:52;;;;;;;28.48;4.65;;;6.70;99.90;;;;;;5082884;28;20032;-62
2024/01/25 07:23:21;;;;;;;25.63;6.00;;;6.70;99.90;;;;;;5078679;28;20051;-62
2024/01/25 07:25:49;;;;;;;32.83;5.37;;;6.70;99.90;;;;;;5070776;28;20423;-62
2024/01/25 07:28:19;;;;;;;29.75;6.07;;;6.80;99.90;;;;;;5086010;28;20058;-68
2024/01/25 07:30:49;;;;;;;30.30;6.38;;;6.80;99.90;;;;;;5083916;28;20052;-66
2024/01/25 07:33:18;;;;;;;32.28;7.15;;;6.80;99.90;;;;;;5089742;28;20049;-62
2024/01/25 07:35:46;;;;;;;35.08;6.82;;;6.80;99.90;;;;;;5069572;28;20052;-73
2024/01/25 07:38:17;;;;;;;31.88;6.82;;;6.90;99.90;;;;;;5085049;28;20047;-62
2024/01/25 07:40:44;;;;;;;29.42;7.20;;;6.90;99.90;;;;;;5085924;28;20498;-62
2024/01/25 07:43:13;;;;;;;31.80;6.65;;;6.90;99.90;;;;;;5082971;28;20047;-62
2024/01/25 07:45:40;;;;;;;35.95;7.50;;;6.90;99.90;;;;;;5089626;28;20048;-62
2024/01/25 07:48:08;;;;;;;27.48;7.22;;;7.00;99.90;;;;;;5075210;28;20048;-63
2024/01/25 07:50:42;;;;;;;33.22;7.35;;;7.00;99.90;;;;;;5082946;28;20036;-62
2024/01/25 07:53:12;;;;;;;29.85;8.30;;;7.00;99.90;;;;;;5083046;28;20048;-63
2024/01/25 07:55:39;;;;;;;36.53;7.90;;;7.10;99.90;;;;;;5069227;28;20048;-64
2024/01/25 07:58:07;;;;;;;28.17;8.02;;;7.10;99.90;;;;;;5069682;28;20052;-63
2024/01/25 08:00:35;;;;;;;37.40;8.23;;;7.10;99.90;;;;;;5072589;28;20049;-66
2024/01/25 08:03:04;;;;;;;29.25;8.32;;;7.10;99.90;;;;;;5072804;28;20059;-64
2024/01/25 08:05:31;;;;;;;28.10;8.38;;;7.20;99.90;;;;;;5066088;28;20037;-62
2024/01/25 08:08:11;;;;;;;23.92;5.85;;;7.20;99.90;;;;;;5094082;28;20051;-62
2024/01/25 08:10:39;;;;;;;30.52;7.38;;;7.20;99.90;;;;;;5091434;28;20052;-63
2024/01/25 08:13:07;;;;;;;22.40;6.97;;;7.20;99.90;;;;;;5096539;28;20058;-64
2024/01/25 08:15:35;;;;;;;27.83;7.07;;;7.20;99.90;;;;;;5086205;28;20044;-71
2024/01/25 08:18:03;;;;;;;27.80;8.02;;;7.20;99.90;;;;;;5077754;28;20043;-68
2024/01/25 08:20:31;;;;;;;25.45;7.07;;;7.20;99.90;;;;;;5087350;28;20048;-74
2024/01/25 08:23:00;;;;;;;23.02;7.88;;;7.30;99.90;;;;;;5097758;28;20418;-74
2024/01/25 08:25:27;;;;;;;26.75;7.80;;;7.20;99.90;;;;;;5108954;28;20129;-75
2024/01/25 08:27:55;;;;;;;37.72;9.80;;;7.20;99.90;;;;;;5108995;28;20058;-74
2024/01/25 08:30:23;;;;;;;30.27;8.88;;;7.30;99.90;;;;;;5092102;28;20495;-63
2024/01/25 08:32:51;;;;;;;28.13;8.23;;;7.20;99.90;;;;;;5067971;28;20501;-67
2024/01/25 08:35:19;;;;;;;32.22;8.70;;;7.30;99.90;;;;;;5087013;28;20759;-72
2024/01/25 08:37:49;;;;;;;35.83;10.20;;;7.30;99.90;;;;;;5087989;28;20047;-74
2024/01/25 08:40:17;;;;;;;35.75;9.40;;;7.30;99.90;;;;;;5081410;28;20048;-75
2024/01/25 08:42:45;;;;;;;34.85;9.65;;;7.30;99.90;;;;;;5093027;28;20047;-66
2024/01/25 08:45:13;;;;;;;30.50;8.80;;;7.30;99.90;;;;;;5107691;28;20054;-66
2024/01/25 08:47:46;;;;;;;31.30;9.05;;;7.30;99.90;;;;;;5105729;28;20388;-63
2024/01/25 08:50:14;;;;;;;27.30;8.75;;;7.40;99.90;;;;;;5082181;28;20040;-62
2024/01/25 08:52:42;;;;;;;33.08;8.98;;;7.40;99.90;;;;;;5084806;28;20044;-62
2024/01/25 08:55:09;;;;;;;30.10;9.45;;;7.40;99.90;;;;;;5079322;28;20039;-63
2024/01/25 08:57:39;;;;;;;36.08;9.98;;;7.40;99.90;;;;;;5086422;28;20060;-62
2024/01/25 09:00:11;;;;;;;39.70;10.40;;;7.40;99.90;;;;;;5084245;28;20439;-64
2024/01/25 09:02:39;;;;;;;33.03;8.43;;;7.40;99.90;;;;;;5081349;28;20050;-62
2024/01/25 09:05:08;;;;;;;28.80;9.10;;;7.50;99.90;;;;;;5071927;28;20040;-63
2024/01/25 09:07:38;;;;;;;31.70;8.82;;;7.50;99.90;;;;;;5069456;28;20071;-64
2024/01/25 09:10:06;;;;;;;36.50;9.60;;;7.50;99.90;;;;;;5092873;28;20047;-63
2024/01/25 09:12:35;;;;;;;29.75;9.60;;;7.50;99.90;;;;;;5088266;28;20048;-63
2024/01/25 09:15:03;;;;;;;33.90;9.85;;;7.50;99.90;;;;;;5084424;28;20052;-66
2024/01/25 09:17:31;;;;;;;28.92;9.80;;;7.60;99.90;;;;;;5086920;28;20044;-63
2024/01/25 09:19:59;;;;;;;33.80;9.68;;;7.60;99.90;;;;;;5084758;28;20051;-64
2024/01/25 09:22:28;;;;;;;34.08;9.75;;;7.60;99.90;;;;;;5082438;28;20420;-64
2024/01/25 09:24:56;;;;;;;31.08;11.43;;;7.60;99.90;;;;;;5087157;28;20126;-72
2024/01/25 09:27:23;;;;;;;39.08;13.20;;;7.70;99.90;;;;;;5077632;28;20049;-67
2024/01/25 09:29:51;;;;;;;30.02;9.32;;;7.70;99.90;;;;;;5085181;28;20028;-67
2024/01/25 09:32:20;;;;;;;33.13;10.52;;;7.70;99.90;;;;;;5085160;28;20051;-62
2024/01/25 09:34:48;;;;;;;37.35;9.98;;;7.70;99.90;;;;;;5078920;28;20031;-63
2024/01/25 09:37:17;;;;;;;29.60;9.98;;;7.80;99.90;;;;;;5069270;28;20052;-66
2024/01/25 09:39:45;;;;;;;35.93;11.00;;;7.80;99.90;;;;;;5071345;28;20484;-69
2024/01/25 09:42:13;;;;;;;32.70;9.75;;;7.80;99.90;;;;;;5085410;28;20051;-67
2024/01/25 09:44:43;;;;;;;29.73;8.75;;;7.80;99.90;;;;;;5082572;28;20484;-64
2024/01/25 09:47:11;;;;;;;33.95;10.70;;;7.80;99.90;;;;;;5072163;28;20059;-66
2024/01/25 09:49:39;;;;;;;27.95;8.55;;;7.90;99.90;;;;;;5088513;28;20067;-63
2024/01/25 09:52:11;;;;;;;27.50;8.20;;;7.90;99.90;;;;;;5083364;28;20056;-62
2024/01/25 09:54:40;;;;;;;36.30;10.45;;;7.90;99.90;;;;;;5069858;28;20040;-63
2024/01/25 09:57:21;;;;;;;23.27;9.40;;;7.90;99.90;;;;;;5070767;28;20047;-63
2024/01/25 09:59:50;;;;;;;29.08;9.43;;;7.90;99.90;;;;;;5077193;28;20036;-63
2024/01/25 10:02:18;;;;;;;27.50;7.93;;;8.00;99.90;;;;;;5078372;28;20039;-63
2024/01/25 10:04:52;;;;;;;27.05;8.38;;;8.10;99.90;;;;;;5071638;28;20055;-63
2024/01/25 10:07:39;;;;;;;25.38;9.48;;;8.10;99.90;;;;;;5086053;28;20051;-63
2024/01/25 10:10:08;;;;;;;25.58;9.07;;;8.10;99.90;;;;;;5087183;28;20048;-62
2024/01/25 10:12:37;;;;;;;27.85;8.60;;;8.20;99.90;;;;;;5086297;28;20059;-63
2024/01/25 10:15:06;;;;;;;26.90;9.20;;;8.20;99.90;;;;;;5083560;28;20036;-63
2024/01/25 10:17:33;;;;;;;29.52;8.68;;;8.30;99.90;;;;;;5073652;28;20300;-62
2024/01/25 10:20:24;;;;;;;28.00;8.80;;;8.30;99.90;;;;;;5087508;28;20036;-63
2024/01/25 10:22:52;;;;;;;18.80;8.52;;;8.40;99.90;;;;;;5075936;28;20044;-63
2024/01/25 10:25:24;;;;;;;20.00;8.25;;;8.40;99.90;;;;;;5088301;28;20372;-74
2024/01/25 10:27:52;;;;;;;23.42;7.78;;;8.40;99.90;;;;;;5091676;28;20063;-67
2024/01/25 10:30:20;;;;;;;21.73;8.85;;;8.50;99.90;;;;;;5086487;28;20053;-63
2024/01/25 10:32:49;;;;;;;18.40;7.35;;;8.50;99.90;;;;;;5085573;28;20059;-67
2024/01/25 10:35:20;;;;;;;16.80;7.32;;;8.60;99.90;;;;;;5084321;28;20037;-66
2024/01/25 10:37:52;;;;;;;15.38;7.53;;;8.60;99.90;;;;;;5076174;28;20423;-74
2024/01/25 10:40:20;;;;;;;16.63;7.05;;;8.70;99.90;;;;;;5096218;28;20047;-72
2024/01/25 10:42:49;;;;;;;22.58;9.10;;;8.70;99.90;;;;;;5095619;28;20055;-75
2024/01/25 10:45:17;;;;;;;24.08;7.53;;;8.70;99.90;;;;;;5111227;28;20382;-74
2024/01/25 10:47:48;;;;;;;17.80;7.30;;;8.70;99.90;;;;;;5087055;28;20044;-76
2024/01/25 10:50:16;;;;;;;20.33;7.07;;;8.80;99.90;;;;;;5085695;28;20043;-69
2024/01/25 10:52:45;;;;;;;15.68;8.00;;;8.80;99.90;;;;;;5092806;28;20495;-64
2024/01/25 10:55:14;;;;;;;15.48;7.20;;;8.90;99.90;;;;;;5074592;28;20041;-63
2024/01/25 10:57:45;;;;;;;17.90;7.50;;;8.90;99.90;;;;;;5075791;28;20045;-63
2024/01/25 11:00:15;;;;;;;21.65;7.05;;;9.00;99.90;;;;;;5099737;28;20047;-62
2024/01/25 11:02:45;;;;;;;14.88;7.13;;;9.00;99.90;;;;;;5086254;28;20051;-62
2024/01/25 11:05:14;;;;;;;14.82;6.88;;;9.00;99.90;;;;;;5072682;28;20041;-66
2024/01/25 11:07:44;;;;;;;18.42;6.97;;;9.10;99.90;;;;;;5078807;28;20040;-62
2024/01/25 11:10:19;;;;;;;14.13;7.30;;;9.20;99.90;;;;;;5088400;28;20040;-64
2024/01/25 11:12:57;;;;;;;15.82;6.25;;;9.20;99.90;;;;;;5081678;28;20414;-64
2024/01/25 11:15:36;;;;;;;16.60;6.72;;;9.20;99.90;;;;;;5069137;28;20040;-64
2024/01/25 11:18:08;;;;;;;17.17;7.47;;;9.20;99.90;;;;;;5082417;28;20054;-64
2024/01/25 11:20:37;;;;;;;12.35;6.30;;;9.20;99.90;;;;;;5078060;28;20506;-69
2024/01/25 11:23:06;;;;;;;12.45;5.88;;;9.30;99.90;;;;;;5076203;28;20059;-61
2024/01/25 11:25:36;;;;;;;21.30;6.25;;;9.30;99.90;;;;;;5088826;28;20051;-60
2024/01/25 11:28:05;;;;;;;12.05;5.90;;;9.30;99.90;;;;;;5080437;28;20053;-61
2024/01/25 11:30:34;;;;;;;13.77;6.25;;;9.30;99.90;;;;;;5078098;28;20052;-62
2024/01/25 11:33:07;;;;;;;14.05;6.05;;;9.40;99.90;;;;;;5073406;28;20055;-62
2024/01/25 11:35:35;;;;;;;13.18;6.10;;;9.40;99.90;;;;;;5077516;28;20048;-61
2024/01/25 11:38:03;;;;;;;14.30;5.90;;;9.40;99.90;;;;;;5078755;28;20039;-60
2024/01/25 11:40:31;;;;;;;18.98;6.00;;;9.50;99.90;;;;;;5088029;28;20052;-60
2024/01/25 11:43:10;;;;;;;21.35;7.57;;;9.50;99.90;;;;;;5086644;28;20059;-61
2024/01/25 11:45:42;;;;;;;14.82;6.22;;;9.60;99.90;;;;;;5071714;28;20051;-60
2024/01/25 11:48:11;;;;;;;12.65;6.22;;;9.70;99.90;;;;;;5074817;28;20048;-62
2024/01/25 11:50:39;;;;;;;13.30;6.88;;;9.70;99.90;;;;;;5075026;28;20045;-62
2024/01/25 11:53:07;;;;;;;13.50;7.07;;;9.80;99.90;;;;;;5061447;28;20047;-61
2024/01/25 11:55:35;;;;;;;17.40;6.25;;;9.90;99.90;;;;;;5073052;28;20053;-60
2024/01/25 11:58:03;;;;;;;13.50;7.05;;;9.90;99.90;;;;;;5082586;28;20048;-60
2024/01/25 12:00:31;;;;;;;11.50;5.32;;;10.00;99.90;;;;;;5083328;28;20047;-61
2024/01/25 12:02:59;;;;;;;12.88;6.45;;;10.00;99.90;;;;;;5078752;28;20044;-61
2024/01/25 12:05:27;;;;;;;11.77;4.93;;;10.10;99.90;;;;;;5071980;28;20044;-61
2024/01/25 12:07:55;;;;;;;7.65;4.80;;;10.20;99.90;;;;;;5077001;28;20418;-62
2024/01/25 12:10:25;;;;;;;11.45;5.38;;;10.20;99.90;;;;;;5087260;28;20040;-61
2024/01/25 12:12:55;;;;;;;11.35;5.03;;;10.20;99.90;;;;;;5081750;28;20066;-60
2024/01/25 12:15:22;;;;;;;10.52;4.50;;;10.20;99.90;;;;;;5074212;28;20494;-62
2024/01/25 12:17:50;;;;;;;6.68;3.58;;;10.30;99.90;;;;;;5077615;28;20392;-63
2024/01/25 12:20:18;;;;;;;9.55;3.95;;;10.30;99.90;;;;;;5084810;28;20392;-61
2024/01/25 12:22:48;;;;;;;4.30;2.35;;;10.30;99.90;;;;;;5071758;28;20040;-61
2024/01/25 12:25:16;;;;;;;8.68;2.80;;;10.40;99.90;;;;;;5072397;28;20040;-63
2024/01/25 12:27:46;;;;;;;5.97;2.67;;;10.40;99.90;;;;;;5084989;28;20040;-74
2024/01/25 12:30:14;;;;;;;10.00;3.90;;;10.40;99.90;;;;;;5067312;28;20048;-66
2024/01/25 12:32:42;;;;;;;6.65;3.00;;;10.40;99.90;;;;;;5086690;28;20549;-64
2024/01/25 12:35:10;;;;;;;5.75;3.35;;;10.40;99.90;;;;;;5066871;28;20055;-64
2024/01/25 12:37:38;;;;;;;7.38;3.17;;;10.40;99.90;;;;;;5070287;28;20044;-66
2024/01/25 12:40:07;;;;;;;8.05;3.00;;;10.40;99.90;;;;;;5080788;28;20051;-69
2024/01/25 12:42:35;;;;;;;10.38;3.70;;;10.40;99.90;;;;;;5077211;28;20601;-61
2024/01/25 12:45:04;;;;;;;5.97;3.60;;;10.40;99.90;;;;;;5073846;28;20527;-62
2024/01/25 12:47:33;;;;;;;6.43;3.50;;;10.40;99.90;;;;;;5069126;28;20032;-61
2024/01/25 12:50:01;;;;;;;8.57;3.47;;;10.40;99.90;;;;;;5078307;28;20047;-67
2024/01/25 12:52:30;;;;;;;5.55;3.50;;;10.40;99.90;;;;;;5072404;28;20040;-63